sensor_id;sensor_type;location;lat;lon;timestamp;P1;durP1;ratioP1;P2;durP2;ratioP2
8044;SDS011;4065;48.754;9.982;2023-04-16T00:03:07;5.43;;;4.90;;
8044;SDS011;4065;48.754;9.982;2023-04-16T00:06:28;5.90;;;5.40;;
8044;SDS011;4065;48.754;9.982;2023-04-16T00:09:51;5.47;;;5.07;;
8044;SDS011;4065;48.754;9.982;2023-04-16T00:13:13;5.30;;;4.90;;
8044;SDS011;4065;48.754;9.982;2023-04-16T00:16:36;4.72;;;4.43;;
8044;SDS011;4065;48.754;9.982;2023-04-16T00:19:58;4.68;;;4.38;;
8044;SDS011;4065;48.754;9.982;2023-04-16T00:23:20;4.68;;;4.38;;
8044;SDS011;4065;48.754;9.982;2023-04-16T00:26:44;4.60;;;4.30;;
8044;SDS011;4065;48.754;9.982;2023-04-16T00:30:06;4.90;;;4.55;;
8044;SDS011;4065;48.754;9.982;2023-04-16T00:33:30;4.43;;;4.13;;
8044;SDS011;4065;48.754;9.982;2023-04-16T00:36:52;5.72;;;5.32;;
8044;SDS011;4065;48.754;9.982;2023-04-16T00:40:14;5.13;;;4.72;;
8044;SDS011;4065;48.754;9.982;2023-04-16T00:43:36;4.82;;;4.43;;
8044;SDS011;4065;48.754;9.982;2023-04-16T00:46:57;4.22;;;3.92;;
8044;SDS011;4065;48.754;9.982;2023-04-16T00:50:21;4.25;;;3.95;;
8044;SDS011;4065;48.754;9.982;2023-04-16T00:53:43;4.15;;;3.85;;
8044;SDS011;4065;48.754;9.982;2023-04-16T00:57:06;3.90;;;3.60;;
8044;SDS011;4065;48.754;9.982;2023-04-16T01:00:28;4.00;;;3.70;;
8044;SDS011;4065;48.754;9.982;2023-04-16T01:03:50;3.47;;;3.28;;
8044;SDS011;4065;48.754;9.982;2023-04-16T01:07:13;3.65;;;3.40;;
8044;SDS011;4065;48.754;9.982;2023-04-16T01:10:35;3.63;;;3.42;;
8044;SDS011;4065;48.754;9.982;2023-04-16T01:13:57;4.20;;;3.90;;
8044;SDS011;4065;48.754;9.982;2023-04-16T01:17:18;4.78;;;4.28;;
8044;SDS011;4065;48.754;9.982;2023-04-16T01:20:42;4.60;;;4.20;;
8044;SDS011;4065;48.754;9.982;2023-04-16T01:24:04;4.70;;;4.30;;
8044;SDS011;4065;48.754;9.982;2023-04-16T01:27:26;4.35;;;3.97;;
8044;SDS011;4065;48.754;9.982;2023-04-16T01:30:48;4.30;;;4.00;;
8044;SDS011;4065;48.754;9.982;2023-04-16T01:34:09;4.07;;;3.78;;
8044;SDS011;4065;48.754;9.982;2023-04-16T01:37:33;4.03;;;3.72;;
8044;SDS011;4065;48.754;9.982;2023-04-16T01:40:55;3.92;;;3.63;;
8044;SDS011;4065;48.754;9.982;2023-04-16T01:44:18;4.28;;;3.60;;
8044;SDS011;4065;48.754;9.982;2023-04-16T01:47:41;4.53;;;4.13;;
8044;SDS011;4065;48.754;9.982;2023-04-16T01:51:03;4.10;;;3.80;;
8044;SDS011;4065;48.754;9.982;2023-04-16T01:54:27;4.03;;;3.72;;
8044;SDS011;4065;48.754;9.982;2023-04-16T01:57:49;4.03;;;3.72;;
8044;SDS011;4065;48.754;9.982;2023-04-16T02:01:11;4.25;;;3.85;;
8044;SDS011;4065;48.754;9.982;2023-04-16T02:04:33;3.92;;;3.63;;
8044;SDS011;4065;48.754;9.982;2023-04-16T02:07:55;3.80;;;3.50;;
8044;SDS011;4065;48.754;9.982;2023-04-16T02:11:19;3.47;;;3.22;;
8044;SDS011;4065;48.754;9.982;2023-04-16T02:14:41;3.35;;;3.15;;
8044;SDS011;4065;48.754;9.982;2023-04-16T02:18:03;3.60;;;3.30;;
8044;SDS011;4065;48.754;9.982;2023-04-16T02:21:25;4.05;;;3.75;;
8044;SDS011;4065;48.754;9.982;2023-04-16T02:24:47;4.20;;;3.90;;
8044;SDS011;4065;48.754;9.982;2023-04-16T02:28:12;4.97;;;4.57;;
8044;SDS011;4065;48.754;9.982;2023-04-16T02:31:34;5.05;;;4.60;;
8044;SDS011;4065;48.754;9.982;2023-04-16T02:34:56;4.85;;;4.45;;
8044;SDS011;4065;48.754;9.982;2023-04-16T02:38:18;5.68;;;5.20;;
8044;SDS011;4065;48.754;9.982;2023-04-16T02:41:40;5.78;;;5.28;;
8044;SDS011;4065;48.754;9.982;2023-04-16T02:45:03;6.47;;;5.88;;
8044;SDS011;4065;48.754;9.982;2023-04-16T02:48:26;6.22;;;5.68;;
8044;SDS011;4065;48.754;9.982;2023-04-16T02:51:48;8.73;;;5.95;;
8044;SDS011;4065;48.754;9.982;2023-04-16T02:55:10;7.38;;;6.68;;
8044;SDS011;4065;48.754;9.982;2023-04-16T02:58:32;6.82;;;6.15;;
8044;SDS011;4065;48.754;9.982;2023-04-16T03:01:55;6.40;;;5.80;;
8044;SDS011;4065;48.754;9.982;2023-04-16T03:05:17;7.38;;;5.82;;
8044;SDS011;4065;48.754;9.982;2023-04-16T03:08:39;6.25;;;5.53;;
8044;SDS011;4065;48.754;9.982;2023-04-16T03:12:01;5.40;;;4.90;;
8044;SDS011;4065;48.754;9.982;2023-04-16T03:15:23;4.85;;;4.45;;
8044;SDS011;4065;48.754;9.982;2023-04-16T03:18:47;4.10;;;3.80;;
8044;SDS011;4065;48.754;9.982;2023-04-16T03:22:08;4.57;;;4.25;;
8044;SDS011;4065;48.754;9.982;2023-04-16T03:25:30;4.35;;;4.05;;
8044;SDS011;4065;48.754;9.982;2023-04-16T03:28:52;4.25;;;3.95;;
8044;SDS011;4065;48.754;9.982;2023-04-16T03:32:14;4.25;;;3.95;;
8044;SDS011;4065;48.754;9.982;2023-04-16T03:35:38;4.72;;;4.32;;
8044;SDS011;4065;48.754;9.982;2023-04-16T03:38:59;4.43;;;4.13;;
8044;SDS011;4065;48.754;9.982;2023-04-16T03:42:21;4.35;;;4.00;;
8044;SDS011;4065;48.754;9.982;2023-04-16T03:45:43;4.45;;;4.05;;
8044;SDS011;4065;48.754;9.982;2023-04-16T03:49:05;4.50;;;4.20;;
8044;SDS011;4065;48.754;9.982;2023-04-16T03:52:28;4.55;;;4.15;;
8044;SDS011;4065;48.754;9.982;2023-04-16T03:55:50;4.68;;;4.28;;
8044;SDS011;4065;48.754;9.982;2023-04-16T03:59:12;4.03;;;3.72;;
8044;SDS011;4065;48.754;9.982;2023-04-16T04:02:34;5.22;;;4.75;;
8044;SDS011;4065;48.754;9.982;2023-04-16T04:05:56;4.60;;;4.20;;
8044;SDS011;4065;48.754;9.982;2023-04-16T04:09:19;4.78;;;4.38;;
8044;SDS011;4065;48.754;9.982;2023-04-16T04:12:41;4.10;;;3.80;;
8044;SDS011;4065;48.754;9.982;2023-04-16T04:16:03;3.72;;;3.42;;
8044;SDS011;4065;48.754;9.982;2023-04-16T04:19:26;4.68;;;4.13;;
8044;SDS011;4065;48.754;9.982;2023-04-16T04:22:48;5.13;;;4.72;;
8044;SDS011;4065;48.754;9.982;2023-04-16T04:26:11;5.05;;;4.55;;
8044;SDS011;4065;48.754;9.982;2023-04-16T04:29:33;4.97;;;4.50;;
8044;SDS011;4065;48.754;9.982;2023-04-16T04:32:55;4.82;;;4.43;;
8044;SDS011;4065;48.754;9.982;2023-04-16T04:36:17;4.82;;;4.43;;
8044;SDS011;4065;48.754;9.982;2023-04-16T04:39:39;5.25;;;4.70;;
8044;SDS011;4065;48.754;9.982;2023-04-16T04:43:02;5.15;;;4.75;;
8044;SDS011;4065;48.754;9.982;2023-04-16T04:46:24;5.07;;;4.57;;
8044;SDS011;4065;48.754;9.982;2023-04-16T04:49:46;5.50;;;5.00;;
8044;SDS011;4065;48.754;9.982;2023-04-16T04:53:08;5.00;;;4.50;;
8044;SDS011;4065;48.754;9.982;2023-04-16T04:56:30;5.22;;;4.72;;
8044;SDS011;4065;48.754;9.982;2023-04-16T04:59:53;5.03;;;4.63;;
8044;SDS011;4065;48.754;9.982;2023-04-16T05:03:17;5.60;;;5.10;;
8044;SDS011;4065;48.754;9.982;2023-04-16T05:06:40;4.50;;;4.10;;
8044;SDS011;4065;48.754;9.982;2023-04-16T05:10:02;4.80;;;4.38;;
8044;SDS011;4065;48.754;9.982;2023-04-16T05:13:24;4.78;;;4.38;;
8044;SDS011;4065;48.754;9.982;2023-04-16T05:16:47;4.80;;;4.40;;
8044;SDS011;4065;48.754;9.982;2023-04-16T05:20:09;5.20;;;4.80;;
8044;SDS011;4065;48.754;9.982;2023-04-16T05:23:31;4.90;;;4.50;;
8044;SDS011;4065;48.754;9.982;2023-04-16T05:26:53;5.13;;;4.63;;
8044;SDS011;4065;48.754;9.982;2023-04-16T05:30:16;5.30;;;4.80;;
8044;SDS011;4065;48.754;9.982;2023-04-16T05:33:39;4.95;;;4.45;;
8044;SDS011;4065;48.754;9.982;2023-04-16T05:37:01;5.32;;;4.82;;
8044;SDS011;4065;48.754;9.982;2023-04-16T05:40:23;5.72;;;5.20;;
8044;SDS011;4065;48.754;9.982;2023-04-16T05:43:45;5.80;;;5.20;;
8044;SDS011;4065;48.754;9.982;2023-04-16T05:47:07;5.68;;;5.18;;
8044;SDS011;4065;48.754;9.982;2023-04-16T05:50:30;5.35;;;4.85;;
8044;SDS011;4065;48.754;9.982;2023-04-16T05:53:52;5.70;;;5.10;;
8044;SDS011;4065;48.754;9.982;2023-04-16T05:57:14;6.18;;;4.97;;
8044;SDS011;4065;48.754;9.982;2023-04-16T06:00:36;5.57;;;5.05;;
8044;SDS011;4065;48.754;9.982;2023-04-16T06:03:57;4.85;;;4.45;;
8044;SDS011;4065;48.754;9.982;2023-04-16T06:07:21;5.53;;;4.88;;
8044;SDS011;4065;48.754;9.982;2023-04-16T06:10:44;6.05;;;5.45;;
8044;SDS011;4065;48.754;9.982;2023-04-16T06:14:06;5.63;;;5.13;;
8044;SDS011;4065;48.754;9.982;2023-04-16T06:17:28;5.25;;;4.75;;
8044;SDS011;4065;48.754;9.982;2023-04-16T06:20:50;5.43;;;4.93;;
8044;SDS011;4065;48.754;9.982;2023-04-16T06:24:13;5.40;;;4.90;;
8044;SDS011;4065;48.754;9.982;2023-04-16T06:27:35;5.25;;;4.78;;
8044;SDS011;4065;48.754;9.982;2023-04-16T06:30:58;5.85;;;5.22;;
8044;SDS011;4065;48.754;9.982;2023-04-16T06:34:20;5.72;;;5.22;;
8044;SDS011;4065;48.754;9.982;2023-04-16T06:37:42;6.13;;;5.53;;
8044;SDS011;4065;48.754;9.982;2023-04-16T06:41:05;5.47;;;4.97;;
8044;SDS011;4065;48.754;9.982;2023-04-16T06:44:27;5.85;;;5.28;;
8044;SDS011;4065;48.754;9.982;2023-04-16T06:47:49;6.47;;;5.20;;
8044;SDS011;4065;48.754;9.982;2023-04-16T06:51:11;6.10;;;5.43;;
8044;SDS011;4065;48.754;9.982;2023-04-16T06:54:33;6.05;;;5.05;;
8044;SDS011;4065;48.754;9.982;2023-04-16T06:57:56;5.32;;;4.82;;
8044;SDS011;4065;48.754;9.982;2023-04-16T07:01:18;5.38;;;4.88;;
8044;SDS011;4065;48.754;9.982;2023-04-16T07:04:40;5.78;;;4.78;;
8044;SDS011;4065;48.754;9.982;2023-04-16T07:08:02;5.78;;;5.20;;
8044;SDS011;4065;48.754;9.982;2023-04-16T07:11:24;5.80;;;4.97;;
8044;SDS011;4065;48.754;9.982;2023-04-16T07:14:47;5.45;;;4.93;;
8044;SDS011;4065;48.754;9.982;2023-04-16T07:18:10;6.55;;;5.85;;
8044;SDS011;4065;48.754;9.982;2023-04-16T07:21:31;6.38;;;5.78;;
8044;SDS011;4065;48.754;9.982;2023-04-16T07:24:53;6.43;;;5.82;;
8044;SDS011;4065;48.754;9.982;2023-04-16T07:28:15;6.95;;;6.05;;
8044;SDS011;4065;48.754;9.982;2023-04-16T07:31:39;6.70;;;6.03;;
8044;SDS011;4065;48.754;9.982;2023-04-16T07:35:01;8.35;;;7.13;;
8044;SDS011;4065;48.754;9.982;2023-04-16T07:38:23;7.43;;;6.72;;
8044;SDS011;4065;48.754;9.982;2023-04-16T07:41:54;6.88;;;6.18;;
8044;SDS011;4065;48.754;9.982;2023-04-16T07:45:28;7.07;;;6.38;;
8044;SDS011;4065;48.754;9.982;2023-04-16T07:48:51;9.23;;;7.53;;
8044;SDS011;4065;48.754;9.982;2023-04-16T07:52:14;12.30;;;9.40;;
8044;SDS011;4065;48.754;9.982;2023-04-16T07:55:38;8.30;;;7.38;;
8044;SDS011;4065;48.754;9.982;2023-04-16T07:59:00;9.15;;;8.07;;
8044;SDS011;4065;48.754;9.982;2023-04-16T08:02:22;8.63;;;7.75;;
8044;SDS011;4065;48.754;9.982;2023-04-16T08:05:45;9.00;;;7.57;;
8044;SDS011;4065;48.754;9.982;2023-04-16T08:09:07;6.90;;;6.20;;
8044;SDS011;4065;48.754;9.982;2023-04-16T08:12:29;6.85;;;6.15;;
8044;SDS011;4065;48.754;9.982;2023-04-16T08:15:51;7.00;;;6.30;;
8044;SDS011;4065;48.754;9.982;2023-04-16T08:19:12;5.80;;;5.22;;
8044;SDS011;4065;48.754;9.982;2023-04-16T08:22:36;6.78;;;5.70;;
8044;SDS011;4065;48.754;9.982;2023-04-16T08:25:59;6.75;;;6.00;;
8044;SDS011;4065;48.754;9.982;2023-04-16T08:29:23;5.90;;;5.32;;
8044;SDS011;4065;48.754;9.982;2023-04-16T08:32:45;6.75;;;6.10;;
8044;SDS011;4065;48.754;9.982;2023-04-16T08:36:07;6.60;;;5.80;;
8044;SDS011;4065;48.754;9.982;2023-04-16T08:39:31;7.30;;;6.38;;
8044;SDS011;4065;48.754;9.982;2023-04-16T08:42:57;6.78;;;6.07;;
8044;SDS011;4065;48.754;9.982;2023-04-16T08:46:22;6.97;;;6.28;;
8044;SDS011;4065;48.754;9.982;2023-04-16T08:49:45;8.23;;;6.82;;
8044;SDS011;4065;48.754;9.982;2023-04-16T08:53:12;9.77;;;7.22;;
8044;SDS011;4065;48.754;9.982;2023-04-16T08:56:39;9.90;;;7.90;;
8044;SDS011;4065;48.754;9.982;2023-04-16T09:00:02;9.63;;;8.40;;
8044;SDS011;4065;48.754;9.982;2023-04-16T09:03:24;9.88;;;8.45;;
8044;SDS011;4065;48.754;9.982;2023-04-16T09:06:54;11.20;;;9.27;;
8044;SDS011;4065;48.754;9.982;2023-04-16T09:10:16;9.00;;;8.10;;
8044;SDS011;4065;48.754;9.982;2023-04-16T09:13:45;11.48;;;8.93;;
8044;SDS011;4065;48.754;9.982;2023-04-16T09:17:10;12.23;;;9.70;;
8044;SDS011;4065;48.754;9.982;2023-04-16T09:20:33;11.75;;;9.45;;
8044;SDS011;4065;48.754;9.982;2023-04-16T09:23:55;11.60;;;9.93;;
8044;SDS011;4065;48.754;9.982;2023-04-16T09:27:18;9.60;;;8.35;;
8044;SDS011;4065;48.754;9.982;2023-04-16T09:30:41;10.30;;;8.23;;
8044;SDS011;4065;48.754;9.982;2023-04-16T09:34:07;9.23;;;8.13;;
8044;SDS011;4065;48.754;9.982;2023-04-16T09:37:35;8.18;;;7.38;;
8044;SDS011;4065;48.754;9.982;2023-04-16T09:41:06;8.85;;;7.88;;
8044;SDS011;4065;48.754;9.982;2023-04-16T09:44:33;9.55;;;8.15;;
8044;SDS011;4065;48.754;9.982;2023-04-16T09:48:02;9.02;;;8.05;;
8044;SDS011;4065;48.754;9.982;2023-04-16T09:51:25;9.82;;;8.40;;
8044;SDS011;4065;48.754;9.982;2023-04-16T09:54:49;7.68;;;6.88;;
8044;SDS011;4065;48.754;9.982;2023-04-16T09:58:12;8.20;;;6.72;;
8044;SDS011;4065;48.754;9.982;2023-04-16T10:01:45;8.43;;;7.50;;
8044;SDS011;4065;48.754;9.982;2023-04-16T10:05:10;7.68;;;6.88;;
8044;SDS011;4065;48.754;9.982;2023-04-16T10:08:36;7.53;;;6.28;;
8044;SDS011;4065;48.754;9.982;2023-04-16T10:12:00;7.13;;;6.43;;
8044;SDS011;4065;48.754;9.982;2023-04-16T10:15:22;6.63;;;6.07;;
8044;SDS011;4065;48.754;9.982;2023-04-16T10:18:44;7.03;;;6.43;;
8044;SDS011;4065;48.754;9.982;2023-04-16T10:22:08;7.80;;;7.00;;
8044;SDS011;4065;48.754;9.982;2023-04-16T10:25:30;7.63;;;6.82;;
8044;SDS011;4065;48.754;9.982;2023-04-16T10:28:55;8.07;;;7.28;;
8044;SDS011;4065;48.754;9.982;2023-04-16T10:32:19;8.00;;;7.20;;
8044;SDS011;4065;48.754;9.982;2023-04-16T10:35:41;7.05;;;6.35;;
8044;SDS011;4065;48.754;9.982;2023-04-16T10:39:09;9.07;;;7.25;;
8044;SDS011;4065;48.754;9.982;2023-04-16T10:42:33;7.22;;;6.18;;
8044;SDS011;4065;48.754;9.982;2023-04-16T10:45:55;7.57;;;6.88;;
8044;SDS011;4065;48.754;9.982;2023-04-16T10:49:18;8.63;;;7.72;;
8044;SDS011;4065;48.754;9.982;2023-04-16T10:52:44;6.55;;;5.95;;
8044;SDS011;4065;48.754;9.982;2023-04-16T10:56:11;6.95;;;6.25;;
8044;SDS011;4065;48.754;9.982;2023-04-16T10:59:35;6.50;;;5.82;;
8044;SDS011;4065;48.754;9.982;2023-04-16T11:02:59;6.10;;;5.53;;
8044;SDS011;4065;48.754;9.982;2023-04-16T11:06:23;11.65;;;7.78;;
8044;SDS011;4065;48.754;9.982;2023-04-16T11:09:50;6.25;;;5.63;;
8044;SDS011;4065;48.754;9.982;2023-04-16T11:13:14;15.25;;;12.50;;
8044;SDS011;4065;48.754;9.982;2023-04-16T11:16:39;10.63;;;8.35;;
8044;SDS011;4065;48.754;9.982;2023-04-16T11:20:04;6.07;;;5.47;;
8044;SDS011;4065;48.754;9.982;2023-04-16T11:23:26;7.80;;;7.00;;
8044;SDS011;4065;48.754;9.982;2023-04-16T11:26:51;8.65;;;6.90;;
8044;SDS011;4065;48.754;9.982;2023-04-16T11:30:14;8.63;;;7.75;;
8044;SDS011;4065;48.754;9.982;2023-04-16T11:33:36;13.05;;;10.05;;
8044;SDS011;4065;48.754;9.982;2023-04-16T11:37:01;8.68;;;7.78;;
8044;SDS011;4065;48.754;9.982;2023-04-16T11:40:23;8.43;;;7.57;;
8044;SDS011;4065;48.754;9.982;2023-04-16T11:43:45;8.20;;;7.40;;
8044;SDS011;4065;48.754;9.982;2023-04-16T11:47:08;14.40;;;10.98;;
8044;SDS011;4065;48.754;9.982;2023-04-16T11:50:33;9.75;;;8.10;;
8044;SDS011;4065;48.754;9.982;2023-04-16T11:53:55;10.48;;;8.98;;
8044;SDS011;4065;48.754;9.982;2023-04-16T11:57:22;12.43;;;9.55;;
8044;SDS011;4065;48.754;9.982;2023-04-16T12:00:45;7.15;;;6.20;;
8044;SDS011;4065;48.754;9.982;2023-04-16T12:04:14;10.30;;;8.57;;
8044;SDS011;4065;48.754;9.982;2023-04-16T12:07:43;10.27;;;9.20;;
8044;SDS011;4065;48.754;9.982;2023-04-16T12:11:05;14.23;;;10.52;;
8044;SDS011;4065;48.754;9.982;2023-04-16T12:14:27;6.78;;;5.85;;
8044;SDS011;4065;48.754;9.982;2023-04-16T12:17:50;8.98;;;7.38;;
8044;SDS011;4065;48.754;9.982;2023-04-16T12:21:36;15.25;;;11.43;;
8044;SDS011;4065;48.754;9.982;2023-04-16T12:24:59;5.60;;;5.05;;
8044;SDS011;4065;48.754;9.982;2023-04-16T12:28:26;5.35;;;4.85;;
8044;SDS011;4065;48.754;9.982;2023-04-16T12:31:49;5.18;;;4.68;;
8044;SDS011;4065;48.754;9.982;2023-04-16T12:35:12;6.25;;;5.63;;
8044;SDS011;4065;48.754;9.982;2023-04-16T12:38:39;5.10;;;4.60;;
8044;SDS011;4065;48.754;9.982;2023-04-16T12:42:01;5.15;;;4.65;;
8044;SDS011;4065;48.754;9.982;2023-04-16T12:45:24;5.82;;;5.32;;
8044;SDS011;4065;48.754;9.982;2023-04-16T12:48:46;6.32;;;5.72;;
8044;SDS011;4065;48.754;9.982;2023-04-16T12:52:09;5.43;;;4.93;;
8044;SDS011;4065;48.754;9.982;2023-04-16T12:55:34;5.53;;;4.97;;
8044;SDS011;4065;48.754;9.982;2023-04-16T12:58:56;5.05;;;4.65;;
8044;SDS011;4065;48.754;9.982;2023-04-16T13:02:18;4.93;;;4.43;;
8044;SDS011;4065;48.754;9.982;2023-04-16T13:05:40;5.03;;;4.55;;
8044;SDS011;4065;48.754;9.982;2023-04-16T13:09:02;5.15;;;4.72;;
8044;SDS011;4065;48.754;9.982;2023-04-16T13:12:28;5.20;;;4.70;;
8044;SDS011;4065;48.754;9.982;2023-04-16T13:15:52;6.22;;;4.97;;
8044;SDS011;4065;48.754;9.982;2023-04-16T13:19:15;5.90;;;4.60;;
8044;SDS011;4065;48.754;9.982;2023-04-16T13:22:38;4.70;;;4.30;;
8044;SDS011;4065;48.754;9.982;2023-04-16T13:26:00;4.97;;;4.47;;
8044;SDS011;4065;48.754;9.982;2023-04-16T13:29:23;4.63;;;4.22;;
8044;SDS011;4065;48.754;9.982;2023-04-16T13:32:48;4.80;;;4.40;;
8044;SDS011;4065;48.754;9.982;2023-04-16T13:36:10;4.70;;;4.30;;
8044;SDS011;4065;48.754;9.982;2023-04-16T13:39:32;5.18;;;4.70;;
8044;SDS011;4065;48.754;9.982;2023-04-16T13:42:56;4.68;;;4.28;;
8044;SDS011;4065;48.754;9.982;2023-04-16T13:46:22;4.95;;;4.55;;
8044;SDS011;4065;48.754;9.982;2023-04-16T13:49:44;5.43;;;4.93;;
8044;SDS011;4065;48.754;9.982;2023-04-16T13:53:06;5.93;;;5.32;;
8044;SDS011;4065;48.754;9.982;2023-04-16T13:56:29;6.22;;;5.65;;
8044;SDS011;4065;48.754;9.982;2023-04-16T13:59:53;5.45;;;4.95;;
8044;SDS011;4065;48.754;9.982;2023-04-16T14:03:19;5.97;;;5.40;;
8044;SDS011;4065;48.754;9.982;2023-04-16T14:06:41;5.78;;;5.28;;
8044;SDS011;4065;48.754;9.982;2023-04-16T14:10:03;4.90;;;4.50;;
8044;SDS011;4065;48.754;9.982;2023-04-16T14:13:25;6.20;;;5.60;;
8044;SDS011;4065;48.754;9.982;2023-04-16T14:16:47;10.13;;;9.05;;
8044;SDS011;4065;48.754;9.982;2023-04-16T14:20:11;25.77;;;18.05;;
8044;SDS011;4065;48.754;9.982;2023-04-16T14:23:34;7.07;;;6.20;;
8044;SDS011;4065;48.754;9.982;2023-04-16T14:26:58;7.45;;;6.50;;
8044;SDS011;4065;48.754;9.982;2023-04-16T14:30:20;7.25;;;6.55;;
8044;SDS011;4065;48.754;9.982;2023-04-16T14:33:42;8.55;;;6.30;;
8044;SDS011;4065;48.754;9.982;2023-04-16T14:37:05;5.40;;;4.90;;
8044;SDS011;4065;48.754;9.982;2023-04-16T14:40:27;5.82;;;5.32;;
8044;SDS011;4065;48.754;9.982;2023-04-16T14:43:49;5.70;;;5.20;;
8044;SDS011;4065;48.754;9.982;2023-04-16T14:47:11;7.22;;;6.53;;
8044;SDS011;4065;48.754;9.982;2023-04-16T14:50:33;6.65;;;5.97;;
8044;SDS011;4065;48.754;9.982;2023-04-16T14:53:58;7.80;;;7.05;;
8044;SDS011;4065;48.754;9.982;2023-04-16T14:57:20;7.35;;;6.65;;
8044;SDS011;4065;48.754;9.982;2023-04-16T15:00:44;8.48;;;7.60;;
8044;SDS011;4065;48.754;9.982;2023-04-16T15:04:07;8.60;;;7.63;;
8044;SDS011;4065;48.754;9.982;2023-04-16T15:07:30;8.10;;;7.30;;
8044;SDS011;4065;48.754;9.982;2023-04-16T15:10:53;8.75;;;7.85;;
8044;SDS011;4065;48.754;9.982;2023-04-16T15:14:15;8.40;;;7.45;;
8044;SDS011;4065;48.754;9.982;2023-04-16T15:17:44;9.65;;;8.63;;
8044;SDS011;4065;48.754;9.982;2023-04-16T15:21:06;8.30;;;7.13;;
8044;SDS011;4065;48.754;9.982;2023-04-16T15:24:28;8.20;;;7.40;;
8044;SDS011;4065;48.754;9.982;2023-04-16T15:27:52;8.82;;;7.80;;
8044;SDS011;4065;48.754;9.982;2023-04-16T15:31:14;9.77;;;8.32;;
8044;SDS011;4065;48.754;9.982;2023-04-16T15:34:36;12.40;;;10.77;;
8044;SDS011;4065;48.754;9.982;2023-04-16T15:37:58;31.42;;;25.60;;
8044;SDS011;4065;48.754;9.982;2023-04-16T15:41:20;13.07;;;11.05;;
8044;SDS011;4065;48.754;9.982;2023-04-16T15:44:43;20.60;;;18.27;;
8044;SDS011;4065;48.754;9.982;2023-04-16T15:48:07;10.73;;;9.68;;
8044;SDS011;4065;48.754;9.982;2023-04-16T15:51:32;9.90;;;8.48;;
8044;SDS011;4065;48.754;9.982;2023-04-16T15:54:55;35.67;;;27.02;;
8044;SDS011;4065;48.754;9.982;2023-04-16T15:58:19;11.32;;;10.10;;
8044;SDS011;4065;48.754;9.982;2023-04-16T16:01:43;13.93;;;12.52;;
8044;SDS011;4065;48.754;9.982;2023-04-16T16:05:09;21.20;;;19.02;;
8044;SDS011;4065;48.754;9.982;2023-04-16T16:08:31;10.50;;;9.50;;
8044;SDS011;4065;48.754;9.982;2023-04-16T16:11:55;6.90;;;6.30;;
8044;SDS011;4065;48.754;9.982;2023-04-16T16:15:19;8.27;;;7.47;;
8044;SDS011;4065;48.754;9.982;2023-04-16T16:18:42;8.75;;;7.90;;
8044;SDS011;4065;48.754;9.982;2023-04-16T16:22:04;7.90;;;7.13;;
8044;SDS011;4065;48.754;9.982;2023-04-16T16:25:26;8.77;;;7.93;;
8044;SDS011;4065;48.754;9.982;2023-04-16T16:28:49;7.57;;;6.88;;
8044;SDS011;4065;48.754;9.982;2023-04-16T16:32:11;9.82;;;8.88;;
8044;SDS011;4065;48.754;9.982;2023-04-16T16:35:37;12.68;;;11.35;;
8044;SDS011;4065;48.754;9.982;2023-04-16T16:39:00;9.25;;;8.35;;
8044;SDS011;4065;48.754;9.982;2023-04-16T16:42:22;29.83;;;23.17;;
8044;SDS011;4065;48.754;9.982;2023-04-16T16:45:45;9.05;;;8.15;;
8044;SDS011;4065;48.754;9.982;2023-04-16T16:49:08;9.15;;;8.25;;
8044;SDS011;4065;48.754;9.982;2023-04-16T16:52:31;9.27;;;8.38;;
8044;SDS011;4065;48.754;9.982;2023-04-16T16:55:53;8.70;;;7.80;;
8044;SDS011;4065;48.754;9.982;2023-04-16T16:59:16;8.63;;;7.72;;
8044;SDS011;4065;48.754;9.982;2023-04-16T17:02:37;9.10;;;8.15;;
8044;SDS011;4065;48.754;9.982;2023-04-16T17:05:59;8.48;;;7.68;;
8044;SDS011;4065;48.754;9.982;2023-04-16T17:09:23;10.18;;;9.05;;
8044;SDS011;4065;48.754;9.982;2023-04-16T17:12:45;8.95;;;7.53;;
8044;SDS011;4065;48.754;9.982;2023-04-16T17:16:09;9.55;;;8.55;;
8044;SDS011;4065;48.754;9.982;2023-04-16T17:19:32;23.75;;;18.98;;
8044;SDS011;4065;48.754;9.982;2023-04-16T17:22:56;43.58;;;30.63;;
8044;SDS011;4065;48.754;9.982;2023-04-16T17:26:20;54.67;;;33.03;;
8044;SDS011;4065;48.754;9.982;2023-04-16T17:29:42;19.42;;;17.63;;
8044;SDS011;4065;48.754;9.982;2023-04-16T17:33:03;12.85;;;9.32;;
8044;SDS011;4065;48.754;9.982;2023-04-16T17:36:25;12.00;;;10.32;;
8044;SDS011;4065;48.754;9.982;2023-04-16T17:39:48;10.55;;;8.95;;
8044;SDS011;4065;48.754;9.982;2023-04-16T17:43:11;8.25;;;7.43;;
8044;SDS011;4065;48.754;9.982;2023-04-16T17:46:33;6.13;;;5.53;;
8044;SDS011;4065;48.754;9.982;2023-04-16T17:49:55;7.43;;;6.82;;
8044;SDS011;4065;48.754;9.982;2023-04-16T17:53:19;7.22;;;6.05;;
8044;SDS011;4065;48.754;9.982;2023-04-16T17:56:41;5.75;;;5.25;;
8044;SDS011;4065;48.754;9.982;2023-04-16T18:00:05;5.50;;;5.00;;
8044;SDS011;4065;48.754;9.982;2023-04-16T18:03:31;6.20;;;5.70;;
8044;SDS011;4065;48.754;9.982;2023-04-16T18:06:53;6.47;;;5.88;;
8044;SDS011;4065;48.754;9.982;2023-04-16T18:10:15;6.20;;;5.70;;
8044;SDS011;4065;48.754;9.982;2023-04-16T18:13:37;8.00;;;7.30;;
8044;SDS011;4065;48.754;9.982;2023-04-16T18:17:00;6.60;;;6.00;;
8044;SDS011;4065;48.754;9.982;2023-04-16T18:20:22;7.22;;;6.53;;
8044;SDS011;4065;48.754;9.982;2023-04-16T18:23:44;7.80;;;7.03;;
8044;SDS011;4065;48.754;9.982;2023-04-16T18:27:06;9.85;;;8.93;;
8044;SDS011;4065;48.754;9.982;2023-04-16T18:30:28;9.18;;;8.23;;
8044;SDS011;4065;48.754;9.982;2023-04-16T18:33:51;9.25;;;8.43;;
8044;SDS011;4065;48.754;9.982;2023-04-16T18:37:13;15.40;;;13.18;;
8044;SDS011;4065;48.754;9.982;2023-04-16T18:40:35;11.23;;;10.02;;
8044;SDS011;4065;48.754;9.982;2023-04-16T18:43:57;13.02;;;11.45;;
8044;SDS011;4065;48.754;9.982;2023-04-16T18:47:20;11.25;;;9.73;;
8044;SDS011;4065;48.754;9.982;2023-04-16T18:50:43;18.63;;;15.23;;
8044;SDS011;4065;48.754;9.982;2023-04-16T18:54:05;38.47;;;32.58;;
8044;SDS011;4065;48.754;9.982;2023-04-16T18:57:26;8.75;;;7.85;;
8044;SDS011;4065;48.754;9.982;2023-04-16T19:00:51;7.97;;;6.85;;
8044;SDS011;4065;48.754;9.982;2023-04-16T19:04:13;8.60;;;7.75;;
8044;SDS011;4065;48.754;9.982;2023-04-16T19:07:36;10.10;;;9.00;;
8044;SDS011;4065;48.754;9.982;2023-04-16T19:10:58;10.18;;;9.27;;
8044;SDS011;4065;48.754;9.982;2023-04-16T19:14:20;8.73;;;7.93;;
8044;SDS011;4065;48.754;9.982;2023-04-16T19:17:42;9.20;;;8.30;;
8044;SDS011;4065;48.754;9.982;2023-04-16T19:21:03;8.65;;;7.80;;
8044;SDS011;4065;48.754;9.982;2023-04-16T19:24:27;9.88;;;8.38;;
8044;SDS011;4065;48.754;9.982;2023-04-16T19:27:49;9.30;;;8.35;;
8044;SDS011;4065;48.754;9.982;2023-04-16T19:31:11;10.85;;;9.75;;
8044;SDS011;4065;48.754;9.982;2023-04-16T19:34:33;13.90;;;12.50;;
8044;SDS011;4065;48.754;9.982;2023-04-16T19:37:55;16.17;;;13.43;;
8044;SDS011;4065;48.754;9.982;2023-04-16T19:41:19;14.90;;;11.65;;
8044;SDS011;4065;48.754;9.982;2023-04-16T19:44:41;11.75;;;10.60;;
8044;SDS011;4065;48.754;9.982;2023-04-16T19:48:03;19.52;;;17.67;;
8044;SDS011;4065;48.754;9.982;2023-04-16T19:51:25;15.50;;;13.40;;
8044;SDS011;4065;48.754;9.982;2023-04-16T19:54:47;21.45;;;15.15;;
8044;SDS011;4065;48.754;9.982;2023-04-16T19:58:10;18.42;;;14.80;;
8044;SDS011;4065;48.754;9.982;2023-04-16T20:01:33;38.85;;;15.23;;
8044;SDS011;4065;48.754;9.982;2023-04-16T20:04:55;20.23;;;15.38;;
8044;SDS011;4065;48.754;9.982;2023-04-16T20:08:17;18.08;;;14.70;;
8044;SDS011;4065;48.754;9.982;2023-04-16T20:11:39;20.00;;;15.93;;
8044;SDS011;4065;48.754;9.982;2023-04-16T20:15:02;18.52;;;15.63;;
8044;SDS011;4065;48.754;9.982;2023-04-16T20:18:25;20.50;;;15.40;;
8044;SDS011;4065;48.754;9.982;2023-04-16T20:21:48;20.00;;;15.20;;
8044;SDS011;4065;48.754;9.982;2023-04-16T20:25:10;22.23;;;17.13;;
8044;SDS011;4065;48.754;9.982;2023-04-16T20:28:33;18.58;;;14.80;;
8044;SDS011;4065;48.754;9.982;2023-04-16T20:31:56;19.10;;;15.70;;
8044;SDS011;4065;48.754;9.982;2023-04-16T20:35:18;18.52;;;13.77;;
8044;SDS011;4065;48.754;9.982;2023-04-16T20:38:40;18.73;;;15.00;;
8044;SDS011;4065;48.754;9.982;2023-04-16T20:42:03;17.08;;;13.88;;
8044;SDS011;4065;48.754;9.982;2023-04-16T20:45:29;19.55;;;15.45;;
8044;SDS011;4065;48.754;9.982;2023-04-16T20:48:58;17.30;;;13.20;;
8044;SDS011;4065;48.754;9.982;2023-04-16T20:52:20;11.25;;;10.05;;
8044;SDS011;4065;48.754;9.982;2023-04-16T20:55:42;10.13;;;9.13;;